Time;durP1;ratioP1;P1;durP2;ratioP2;P2;SDS_P1;SDS_P2;PMS_P1;PMS_P2;Temp;Humidity;BMP_temperature;BMP_pressure;BME280_temperature;BME280_humidity;BME280_pressure;Samples;Min_cycle;Max_cycle;Signal;HPM_P1;HPM_P2
2023/06/26 00:00:26;;;;;;;6.40;5.57;;;24.60;99.90;;;;;;5091727;28;20172;-49
2023/06/26 00:02:52;;;;;;;9.77;5.80;;;23.80;99.90;;;;;;5091603;28;20161;-49
2023/06/26 00:05:17;;;;;;;11.30;6.85;;;23.90;99.90;;;;;;5091179;28;20169;-48
2023/06/26 00:07:43;;;;;;;7.53;5.75;;;23.80;99.90;;;;;;5091870;28;20166;-49
2023/06/26 00:10:09;;;;;;;5.70;5.20;;;24.20;99.90;;;;;;5091528;28;20166;-49
2023/06/26 00:12:34;;;;;;;8.07;5.60;;;23.90;99.90;;;;;;5091573;28;20179;-49
2023/06/26 00:15:00;;;;;;;5.85;5.20;;;24.00;99.90;;;;;;5091465;28;20231;-49
2023/06/26 00:17:26;;;;;;;6.90;5.30;;;23.90;99.90;;;;;;5091553;28;20171;-48
2023/06/26 00:19:51;;;;;;;9.52;5.47;;;23.80;99.90;;;;;;5091485;28;20252;-49
2023/06/26 00:22:17;;;;;;;6.50;5.43;;;23.50;99.90;;;;;;5091697;28;20169;-48
2023/06/26 00:24:44;;;;;;;5.90;5.40;;;;;;;;;;5092119;28;20256;-49
2023/06/26 00:27:10;;;;;;;5.88;5.28;;;23.90;99.90;;;;;;5091666;28;20183;-49
2023/06/26 00:29:36;;;;;;;5.72;5.15;;;23.90;99.90;;;;;;5091531;28;20557;-49
2023/06/26 00:32:01;;;;;;;8.27;5.25;;;23.90;99.90;;;;;;5091409;28;20161;-48
2023/06/26 00:34:27;;;;;;;7.13;5.43;;;23.80;99.90;;;;;;5091320;28;20204;-48
2023/06/26 00:36:52;;;;;;;6.85;5.43;;;23.70;99.90;;;;;;5091655;28;20253;-49
2023/06/26 00:39:18;;;;;;;5.82;4.90;;;;;;;;;;5091232;28;20531;-49
2023/06/26 00:41:44;;;;;;;9.23;5.22;;;23.80;99.90;;;;;;5091948;28;20306;-48
2023/06/26 00:44:09;;;;;;;8.85;5.32;;;23.70;99.90;;;;;;5091238;28;20660;-48
2023/06/26 00:46:35;;;;;;;6.40;5.70;;;23.70;99.90;;;;;;5091182;28;20652;-48
2023/06/26 00:49:03;;;;;;;7.85;5.63;;;23.80;99.90;;;;;;5091483;28;20647;-49
2023/06/26 00:51:30;;;;;;;6.45;5.45;;;23.80;99.90;;;;;;5092920;28;20161;-48
2023/06/26 00:53:57;;;;;;;5.90;5.20;;;23.80;99.90;;;;;;5095051;28;20205;-48
2023/06/26 00:56:23;;;;;;;10.32;5.57;;;24.00;99.90;;;;;;5095022;28;20625;-48
2023/06/26 00:58:49;;;;;;;7.18;5.00;;;23.90;99.90;;;;;;5094989;28;20574;-48
2023/06/26 01:01:21;;;;;;;11.00;5.47;;;23.80;99.90;;;;;;5095421;28;20170;-48
2023/06/26 01:03:51;;;;;;;14.05;5.85;;;23.90;99.90;;;;;;5095127;28;20223;-48
2023/06/26 01:06:18;;;;;;;10.38;6.20;;;23.60;99.90;;;;;;5095045;28;20173;-48
2023/06/26 01:08:45;;;;;;;7.20;5.28;;;24.30;99.90;;;;;;5095064;28;20209;-48
2023/06/26 01:11:12;;;;;;;16.80;5.90;;;23.50;99.90;;;;;;5094787;28;20193;-48
2023/06/26 01:13:39;;;;;;;15.70;5.85;;;23.40;99.90;;;;;;5094848;28;20209;-48
2023/06/26 01:16:05;;;;;;;12.75;5.57;;;22.70;99.90;;;;;;5076431;28;20649;-48
2023/06/26 01:18:33;;;;;;;8.38;5.97;;;23.30;99.90;;;;;;5094555;28;20177;-48
2023/06/26 01:21:01;;;;;;;8.00;6.13;;;23.10;99.90;;;;;;5094804;28;20541;-48
2023/06/26 01:23:52;;;;;;;10.50;5.40;;;23.10;99.90;;;;;;5094863;28;20557;-48
2023/06/26 01:26:18;;;;;;;15.55;6.43;;;23.00;99.90;;;;;;5056133;28;20214;-48
2023/06/26 01:28:44;;;;;;;16.52;6.43;;;23.20;99.90;;;;;;5094857;28;20192;-48
2023/06/26 01:31:14;;;;;;;10.32;6.05;;;;;;;;;;5094377;28;20227;-48
2023/06/26 01:33:41;;;;;;;12.68;6.47;;;23.10;99.90;;;;;;5094225;28;20661;-48
2023/06/26 01:36:07;;;;;;;15.02;6.20;;;23.30;99.90;;;;;;5094248;28;20161;-48
2023/06/26 01:38:32;;;;;;;8.73;5.70;;;22.90;99.90;;;;;;5094180;28;20170;-48
2023/06/26 01:40:59;;;;;;;13.02;6.55;;;23.00;99.90;;;;;;5094230;28;20160;-48
2023/06/26 01:43:49;;;;;;;18.17;6.82;;;22.80;99.90;;;;;;5094167;28;20641;-48
2023/06/26 01:46:36;;;;;;;12.25;6.22;;;22.90;99.90;;;;;;5094409;28;20173;-49
2023/06/26 01:49:17;;;;;;;10.18;6.13;;;22.80;99.90;;;;;;5093948;28;20172;-48
2023/06/26 01:51:46;;;;;;;9.65;6.72;;;;;;;;;;5094395;28;20162;-48
2023/06/26 01:54:16;;;;;;;9.35;6.13;;;22.70;99.90;;;;;;5094231;28;20205;-48
2023/06/26 01:56:45;;;;;;;11.15;6.10;;;22.70;99.90;;;;;;5094555;28;20165;-48
2023/06/26 01:59:13;;;;;;;11.70;6.43;;;22.50;99.90;;;;;;5094284;28;20162;-48
2023/06/26 02:01:39;;;;;;;9.98;6.03;;;22.70;99.90;;;;;;5093595;28;20177;-48
2023/06/26 02:04:05;;;;;;;12.90;6.22;;;22.20;99.90;;;;;;5093721;28;20165;-48
2023/06/26 02:06:30;;;;;;;14.20;6.88;;;22.60;99.90;;;;;;5093716;28;20173;-48
2023/06/26 02:08:56;;;;;;;8.07;7.03;;;22.50;99.90;;;;;;5093550;28;20244;-48
2023/06/26 02:11:22;;;;;;;8.98;6.95;;;22.30;99.90;;;;;;5093849;28;20173;-48
2023/06/26 02:13:48;;;;;;;10.60;7.30;;;22.30;99.90;;;;;;5093475;28;20201;-48
2023/06/26 02:16:13;;;;;;;11.63;7.30;;;22.70;99.90;;;;;;5094064;28;20191;-48
2023/06/26 02:18:39;;;;;;;8.07;6.50;;;22.70;99.90;;;;;;5093503;28;20538;-48
2023/06/26 02:21:05;;;;;;;13.88;7.32;;;22.60;99.90;;;;;;5093450;28;20165;-49
2023/06/26 02:23:31;;;;;;;18.23;8.07;;;22.80;99.90;;;;;;5093351;28;20192;-49
2023/06/26 02:25:56;;;;;;;14.55;7.65;;;22.70;99.90;;;;;;5093619;28;20200;-49
2023/06/26 02:28:23;;;;;;;10.23;7.10;;;;;;;;;;5093256;28;20177;-49
2023/06/26 02:30:48;;;;;;;10.40;6.30;;;23.20;99.90;;;;;;5093186;28;20165;-49
2023/06/26 02:33:14;;;;;;;6.15;5.55;;;22.80;99.90;;;;;;5093554;28;20262;-49
2023/06/26 02:35:39;;;;;;;10.27;5.40;;;22.50;99.90;;;;;;5093213;28;20184;-49
2023/06/26 02:38:05;;;;;;;5.78;4.82;;;22.30;99.90;;;;;;5093064;28;20166;-49
2023/06/26 02:40:30;;;;;;;8.88;5.82;;;22.00;99.90;;;;;;5093193;28;20197;-49
2023/06/26 02:42:56;;;;;;;7.97;5.22;;;22.40;99.90;;;;;;5074824;28;20176;-48
2023/06/26 02:45:22;;;;;;;11.57;5.55;;;22.30;99.90;;;;;;5092935;28;20165;-48
2023/06/26 02:47:47;;;;;;;7.85;5.55;;;21.90;99.90;;;;;;5092845;28;20165;-48
2023/06/26 02:50:13;;;;;;;6.75;5.15;;;22.20;99.90;;;;;;5093524;28;20251;-49
2023/06/26 02:52:39;;;;;;;7.95;5.53;;;22.20;99.90;;;;;;5093090;28;20230;-49
2023/06/26 02:55:05;;;;;;;8.63;5.60;;;22.30;99.90;;;;;;5092844;28;20197;-48
2023/06/26 02:57:31;;;;;;;6.55;5.18;;;22.10;99.90;;;;;;5092951;28;20170;-48
2023/06/26 02:59:56;;;;;;;7.07;5.75;;;21.40;99.90;;;;;;5092936;28;20172;-48
2023/06/26 03:02:22;;;;;;;13.73;5.85;;;21.30;99.90;;;;;;5092573;28;20170;-48
2023/06/26 03:04:47;;;;;;;6.25;5.63;;;21.60;99.90;;;;;;5074435;28;20173;-49
2023/06/26 03:07:13;;;;;;;10.55;5.80;;;22.00;99.90;;;;;;5092997;28;20524;-48
2023/06/26 03:09:38;;;;;;;6.68;5.53;;;22.00;99.90;;;;;;5070848;28;20244;-48
2023/06/26 03:12:04;;;;;;;7.82;5.60;;;21.80;99.90;;;;;;5072256;28;20169;-48
2023/06/26 03:14:31;;;;;;;6.28;5.68;;;22.40;99.90;;;;;;5071435;28;20201;-48
2023/06/26 03:16:58;;;;;;;9.13;5.60;;;21.90;99.90;;;;;;5072126;28;20534;-48
2023/06/26 03:19:24;;;;;;;9.73;6.20;;;21.60;99.90;;;;;;5072234;28;20577;-48
2023/06/26 03:21:50;;;;;;;9.25;6.07;;;21.90;99.90;;;;;;5072142;28;20170;-48
2023/06/26 03:24:16;;;;;;;10.50;6.35;;;22.00;99.90;;;;;;5072032;28;20174;-48
2023/06/26 03:26:41;;;;;;;9.60;6.88;;;21.90;99.90;;;;;;5072110;28;20178;-48
2023/06/26 03:29:07;;;;;;;10.35;6.05;;;21.90;99.90;;;;;;5071919;28;20197;-48
2023/06/26 03:31:33;;;;;;;8.02;6.28;;;;;;;;;;5071853;28;20197;-48
2023/06/26 03:33:58;;;;;;;10.50;6.25;;;21.80;99.90;;;;;;5071756;28;20233;-48
2023/06/26 03:36:24;;;;;;;6.53;5.75;;;21.80;99.90;;;;;;5071867;28;20173;-48
2023/06/26 03:38:49;;;;;;;8.00;5.55;;;21.40;99.90;;;;;;5071818;28;20162;-48
2023/06/26 03:41:15;;;;;;;9.45;5.45;;;;;;;;;;5072290;28;20178;-48
2023/06/26 03:43:41;;;;;;;7.75;5.60;;;21.90;99.90;;;;;;5072077;28;20170;-48
2023/06/26 03:46:06;;;;;;;7.32;5.78;;;21.80;99.90;;;;;;5071757;28;20170;-48
2023/06/26 03:48:32;;;;;;;5.70;4.95;;;22.10;99.90;;;;;;5071663;28;20170;-48
2023/06/26 03:50:57;;;;;;;7.70;5.72;;;22.10;99.90;;;;;;5071738;28;20580;-48
2023/06/26 03:53:24;;;;;;;7.78;5.47;;;;;;;;;;5071574;28;20607;-48
2023/06/26 03:55:49;;;;;;;8.20;5.95;;;22.20;99.90;;;;;;5071798;28;20177;-48
2023/06/26 03:58:15;;;;;;;8.57;5.72;;;;;;;;;;5071879;28;20249;-48
2023/06/26 04:00:41;;;;;;;6.38;4.93;;;22.10;99.90;;;;;;5071963;28;20173;-48
2023/06/26 04:03:06;;;;;;;6.88;5.93;;;22.10;99.90;;;;;;5071475;28;20166;-48
2023/06/26 04:05:32;;;;;;;6.25;5.28;;;22.20;99.90;;;;;;5071434;28;20166;-48
2023/06/26 04:07:57;;;;;;;7.65;6.07;;;22.20;99.90;;;;;;5075674;28;20262;-48
2023/06/26 04:10:23;;;;;;;7.45;5.75;;;22.00;99.90;;;;;;5073519;28;20264;-48
2023/06/26 04:12:49;;;;;;;8.20;5.55;;;22.20;99.90;;;;;;5091542;28;20173;-49
2023/06/26 04:15:14;;;;;;;10.00;5.55;;;22.00;99.90;;;;;;5091932;28;20275;-48
2023/06/26 04:17:40;;;;;;;7.85;5.88;;;22.50;99.90;;;;;;5092120;28;20664;-48
2023/06/26 04:20:06;;;;;;;8.23;5.53;;;22.20;99.90;;;;;;5073347;28;20162;-48
2023/06/26 04:22:33;;;;;;;7.72;5.20;;;21.90;99.90;;;;;;5091792;28;20166;-48
2023/06/26 04:25:00;;;;;;;11.93;5.68;;;22.10;99.90;;;;;;5092441;28;20230;-48
2023/06/26 04:27:25;;;;;;;6.82;5.10;;;22.10;99.90;;;;;;5095648;28;20185;-48
2023/06/26 04:29:51;;;;;;;9.32;5.63;;;21.70;99.90;;;;;;5095481;28;20255;-48
2023/06/26 04:32:16;;;;;;;7.20;5.13;;;22.00;99.90;;;;;;5095467;28;20216;-48
2023/06/26 04:34:45;;;;;;;7.43;5.28;;;22.10;99.90;;;;;;5095812;28;20204;-48
2023/06/26 04:37:10;;;;;;;8.15;4.80;;;22.00;99.90;;;;;;5095770;28;20176;-48
2023/06/26 04:39:37;;;;;;;6.60;4.80;;;22.10;99.90;;;;;;5095392;28;20248;-48
2023/06/26 04:42:03;;;;;;;6.10;5.15;;;;;;;;;;5095351;28;20170;-49
2023/06/26 04:44:29;;;;;;;8.07;4.82;;;22.00;99.90;;;;;;5095284;28;20208;-48
2023/06/26 04:46:54;;;;;;;7.63;5.07;;;21.90;99.90;;;;;;5095236;28;20173;-48
2023/06/26 04:49:20;;;;;;;5.63;4.70;;;22.30;99.90;;;;;;5095173;28;20176;-48
2023/06/26 04:51:45;;;;;;;4.88;4.35;;;22.10;99.90;;;;;;5095134;28;20177;-48
2023/06/26 04:54:11;;;;;;;7.82;5.18;;;22.20;99.90;;;;;;5095627;28;20245;-48
2023/06/26 04:56:39;;;;;;;6.15;4.57;;;22.30;99.90;;;;;;5095044;28;20523;-48
2023/06/26 04:59:05;;;;;;;7.20;4.95;;;22.40;99.90;;;;;;5095305;28;20303;-48
2023/06/26 05:01:32;;;;;;;9.20;4.68;;;22.30;99.90;;;;;;5094935;28;20633;-48
2023/06/26 05:03:58;;;;;;;9.25;5.32;;;21.90;99.90;;;;;;5094758;28;20169;-48
2023/06/26 05:06:23;;;;;;;6.85;4.97;;;22.30;99.90;;;;;;5095165;28;20173;-48
2023/06/26 05:08:49;;;;;;;6.43;4.93;;;22.10;99.90;;;;;;5094693;28;20213;-48
2023/06/26 05:11:15;;;;;;;6.35;5.00;;;;;;;;;;5095214;28;20252;-49
2023/06/26 05:13:41;;;;;;;7.00;4.70;;;;;;;;;;5094940;28;20246;-49
2023/06/26 05:16:08;;;;;;;6.15;4.90;;;22.30;99.90;;;;;;5094243;28;20173;-48
2023/06/26 05:18:35;;;;;;;6.15;4.72;;;22.10;99.90;;;;;;5094897;28;20205;-49
2023/06/26 05:21:01;;;;;;;8.35;4.90;;;;;;;;;;5094204;28;20161;-48
2023/06/26 05:23:27;;;;;;;6.10;5.05;;;;;;;;;;5094017;28;20170;-48
2023/06/26 05:25:53;;;;;;;8.43;5.30;;;22.30;99.90;;;;;;5094044;28;20161;-48
2023/06/26 05:28:20;;;;;;;5.10;4.10;;;22.40;99.90;;;;;;5094468;28;20624;-48
2023/06/26 05:30:46;;;;;;;7.25;4.60;;;22.10;99.90;;;;;;5094291;28;20273;-48
2023/06/26 05:33:14;;;;;;;7.13;4.82;;;22.20;99.90;;;;;;5094895;28;20209;-48
2023/06/26 05:35:41;;;;;;;6.55;4.78;;;22.10;99.90;;;;;;5094664;28;20165;-48
2023/06/26 05:38:07;;;;;;;7.55;4.45;;;22.20;99.90;;;;;;5093753;28;20530;-48
2023/06/26 05:40:34;;;;;;;8.23;4.97;;;;;;;;;;5094267;28;20252;-49
2023/06/26 05:43:00;;;;;;;9.73;4.25;;;22.00;99.90;;;;;;5094131;28;20652;-49
2023/06/26 05:45:26;;;;;;;7.03;4.88;;;;;;;;;;5093928;28;20177;-48
2023/06/26 05:47:51;;;;;;;10.07;4.35;;;22.50;99.90;;;;;;5093933;28;20165;-49
2023/06/26 05:50:19;;;;;;;8.00;4.60;;;22.50;99.90;;;;;;5093884;28;20173;-48
2023/06/26 05:52:45;;;;;;;7.60;4.10;;;;;;;;;;5093896;28;20247;-48
2023/06/26 05:55:12;;;;;;;5.50;4.45;;;22.70;99.90;;;;;;5094162;28;20201;-48
2023/06/26 05:57:38;;;;;;;8.05;4.82;;;22.10;99.90;;;;;;5093710;28;20641;-48
2023/06/26 06:00:10;;;;;;;6.93;4.63;;;;;;;;;;5075648;28;20222;-48
2023/06/26 06:02:36;;;;;;;7.72;4.82;;;22.60;99.90;;;;;;5093778;28;20246;-48
2023/06/26 06:05:02;;;;;;;7.35;4.55;;;21.90;99.90;;;;;;5093773;28;20176;-48
2023/06/26 06:07:28;;;;;;;7.35;4.45;;;;;;;;;;5093558;28;20165;-48
2023/06/26 06:09:53;;;;;;;6.75;4.80;;;21.90;99.90;;;;;;5075401;28;20178;-48
2023/06/26 06:12:19;;;;;;;6.50;4.50;;;22.30;99.90;;;;;;5093784;28;20178;-48
2023/06/26 06:14:45;;;;;;;7.35;4.55;;;;;;;;;;5093468;28;20201;-48
2023/06/26 06:17:10;;;;;;;10.10;4.97;;;22.20;99.90;;;;;;5093886;28;20176;-48
2023/06/26 06:19:36;;;;;;;8.18;4.40;;;21.60;99.90;;;;;;5093469;28;20165;-48
2023/06/26 06:22:02;;;;;;;8.18;4.43;;;21.20;99.90;;;;;;5093287;28;20165;-48
2023/06/26 06:24:27;;;;;;;5.55;4.43;;;21.10;99.90;;;;;;5093604;28;20181;-48
2023/06/26 06:26:53;;;;;;;4.68;3.75;;;21.60;99.90;;;;;;5093284;28;20161;-48
2023/06/26 06:29:19;;;;;;;7.55;4.22;;;22.00;99.90;;;;;;5093220;28;20165;-48
2023/06/26 06:31:45;;;;;;;8.02;4.75;;;22.00;99.90;;;;;;5093439;28;20176;-48
2023/06/26 06:34:11;;;;;;;7.40;4.32;;;22.10;99.90;;;;;;5093491;28;20205;-48
2023/06/26 06:36:37;;;;;;;5.45;4.60;;;21.90;99.90;;;;;;5093054;28;20651;-48
2023/06/26 06:39:03;;;;;;;11.45;4.57;;;22.30;99.90;;;;;;5093022;28;20170;-48
2023/06/26 06:41:29;;;;;;;10.10;4.55;;;22.50;99.90;;;;;;5093251;28;20190;-48
2023/06/26 06:43:54;;;;;;;6.43;3.60;;;21.70;99.90;;;;;;5093216;28;20165;-48
2023/06/26 06:46:20;;;;;;;8.00;4.68;;;21.80;99.90;;;;;;5093174;28;20291;-48
2023/06/26 06:48:46;;;;;;;12.00;4.53;;;22.70;99.90;;;;;;5092203;28;20177;-48
2023/06/26 06:51:12;;;;;;;6.97;4.47;;;22.30;99.90;;;;;;5093513;28;20173;-48
2023/06/26 06:53:38;;;;;;;6.28;4.35;;;22.20;99.90;;;;;;5092701;28;20196;-48
2023/06/26 06:56:03;;;;;;;8.48;4.55;;;22.20;99.90;;;;;;5092772;28;20177;-48
2023/06/26 06:58:30;;;;;;;11.57;5.18;;;22.50;99.90;;;;;;5092708;28;20248;-48
2023/06/26 07:00:56;;;;;;;14.13;5.20;;;22.40;99.90;;;;;;5092644;28;20236;-48
2023/06/26 07:03:22;;;;;;;12.93;4.63;;;;;;;;;;5092761;28;20261;-48
2023/06/26 07:05:48;;;;;;;7.50;4.80;;;22.50;99.90;;;;;;5092904;28;20214;-48
2023/06/26 07:08:14;;;;;;;10.98;5.13;;;22.00;99.90;;;;;;5092842;28;20243;-48
2023/06/26 07:10:50;;;;;;;9.70;4.53;;;21.70;99.90;;;;;;5109386;27;20281;-48
2023/06/26 07:13:16;;;;;;;8.75;4.80;;;22.10;99.90;;;;;;5109349;28;20626;-48
2023/06/26 07:15:41;;;;;;;11.85;5.07;;;21.70;99.90;;;;;;5109705;28;20234;-48
2023/06/26 07:18:07;;;;;;;11.15;5.85;;;21.90;99.90;;;;;;5109311;28;20168;-48
2023/06/26 07:20:32;;;;;;;7.32;4.95;;;;;;;;;;5109539;28;20487;-48
2023/06/26 07:22:58;;;;;;;10.48;5.00;;;22.60;99.90;;;;;;5109218;28;20240;-48
2023/06/26 07:25:23;;;;;;;9.77;5.00;;;22.60;99.90;;;;;;5109101;28;20165;-48
2023/06/26 07:27:49;;;;;;;10.88;4.38;;;23.20;99.90;;;;;;5109086;28;20161;-48
2023/06/26 07:30:15;;;;;;;9.63;4.90;;;22.60;99.90;;;;;;5108989;28;20209;-48
2023/06/26 07:32:42;;;;;;;9.10;4.32;;;23.00;99.90;;;;;;5109499;28;20161;-48
2023/06/26 07:35:07;;;;;;;8.68;4.57;;;23.30;99.90;;;;;;5108910;28;20647;-48
2023/06/26 07:37:33;;;;;;;8.65;5.05;;;23.30;99.90;;;;;;5108965;28;20169;-48
2023/06/26 07:39:59;;;;;;;9.05;4.20;;;;;;;;;;5108906;28;20262;-48
2023/06/26 07:42:24;;;;;;;11.13;4.90;;;23.20;99.90;;;;;;5108835;28;20157;-48
2023/06/26 07:44:50;;;;;;;10.57;4.93;;;23.40;99.90;;;;;;5108792;28;20172;-48
2023/06/26 07:47:15;;;;;;;8.38;4.30;;;23.80;99.90;;;;;;5108924;28;20179;-48
2023/06/26 07:49:41;;;;;;;9.30;4.97;;;23.20;99.90;;;;;;5109080;28;20631;-48
2023/06/26 07:52:10;;;;;;;8.80;4.35;;;23.10;99.90;;;;;;5108977;28;20291;-48
2023/06/26 07:54:35;;;;;;;12.25;5.20;;;23.10;99.90;;;;;;5108918;28;20176;-48
2023/06/26 07:57:04;;;;;;;8.45;4.15;;;23.70;99.90;;;;;;5108551;28;20175;-48
2023/06/26 07:59:30;;;;;;;9.20;4.75;;;23.80;99.90;;;;;;5108516;28;20160;-48
2023/06/26 08:01:57;;;;;;;10.32;4.80;;;23.20;99.90;;;;;;5108523;28;20164;-48
2023/06/26 08:04:24;;;;;;;8.15;4.70;;;23.90;99.90;;;;;;5108485;28;20165;-48
2023/06/26 08:06:52;;;;;;;9.90;4.80;;;24.00;99.90;;;;;;5108465;28;20161;-48
2023/06/26 08:09:20;;;;;;;8.63;4.32;;;23.50;99.90;;;;;;5116016;28;20223;-48
2023/06/26 08:11:46;;;;;;;10.27;4.50;;;23.70;99.90;;;;;;5128762;28;20248;-48
2023/06/26 08:14:12;;;;;;;12.57;4.65;;;23.30;99.90;;;;;;5129109;28;20247;-48
2023/06/26 08:16:39;;;;;;;12.60;4.82;;;23.70;99.90;;;;;;5128971;28;20664;-49
2023/06/26 08:19:04;;;;;;;10.30;4.30;;;23.90;99.90;;;;;;5128611;28;20562;-48
2023/06/26 08:21:30;;;;;;;14.57;5.20;;;24.00;99.90;;;;;;5118513;28;20198;-48
2023/06/26 08:23:55;;;;;;;8.40;4.10;;;24.00;99.90;;;;;;5114453;28;20160;-48
2023/06/26 08:26:21;;;;;;;11.85;4.65;;;24.20;99.90;;;;;;5114331;28;20161;-48
2023/06/26 08:28:46;;;;;;;9.55;4.70;;;24.60;99.90;;;;;;5114443;28;20675;-48
2023/06/26 08:31:12;;;;;;;8.82;4.57;;;;;;;;;;5115124;28;20224;-49
2023/06/26 08:33:38;;;;;;;6.53;4.07;;;24.20;99.90;;;;;;5114512;28;20164;-48
2023/06/26 08:36:04;;;;;;;9.50;4.28;;;23.80;99.90;;;;;;5114590;28;20160;-48
2023/06/26 08:38:29;;;;;;;10.68;4.15;;;24.30;99.90;;;;;;5114156;28;20165;-48
2023/06/26 08:40:55;;;;;;;6.32;3.92;;;23.90;99.90;;;;;;5114256;28;20174;-48
2023/06/26 08:43:21;;;;;;;15.50;4.93;;;24.20;99.90;;;;;;5096271;28;20620;-48
2023/06/26 08:45:51;;;;;;;7.05;3.75;;;23.70;99.90;;;;;;5095891;28;20168;-48
2023/06/26 08:48:17;;;;;;;7.93;4.00;;;24.20;99.90;;;;;;5114222;28;20172;-48
2023/06/26 08:50:43;;;;;;;11.30;4.28;;;23.70;99.90;;;;;;5114178;28;20192;-48
2023/06/26 08:53:36;;;;;;;6.68;3.90;;;24.30;99.90;;;;;;5114020;28;20247;-48
2023/06/26 08:56:02;;;;;;;11.10;4.55;;;24.50;99.90;;;;;;5114333;28;20209;-48
2023/06/26 08:58:28;;;;;;;8.23;3.90;;;24.70;99.90;;;;;;5114326;28;20686;-48
2023/06/26 09:00:55;;;;;;;12.55;4.30;;;24.90;99.90;;;;;;5114264;28;20199;-48
2023/06/26 09:03:21;;;;;;;7.32;3.95;;;24.90;99.90;;;;;;5114427;28;20172;-48
2023/06/26 09:05:47;;;;;;;8.05;4.38;;;24.40;99.90;;;;;;5113987;28;20161;-50
2023/06/26 09:08:13;;;;;;;7.32;3.47;;;24.40;99.90;;;;;;5114353;28;20176;-47
2023/06/26 09:10:39;;;;;;;12.00;4.80;;;;;;;;;;5113750;28;20623;-48
2023/06/26 09:13:05;;;;;;;8.38;3.60;;;24.90;99.90;;;;;;5113928;28;20163;-48
2023/06/26 09:15:39;;;;;;;8.10;3.80;;;24.80;99.90;;;;;;5095591;28;20533;-48
2023/06/26 09:18:05;;;;;;;11.85;4.25;;;24.70;99.90;;;;;;5114033;28;20172;-48
2023/06/26 09:20:33;;;;;;;8.50;3.80;;;24.80;99.90;;;;;;5113744;28;20220;-48
2023/06/26 09:22:59;;;;;;;8.65;4.05;;;24.80;99.90;;;;;;5113935;28;20171;-48
2023/06/26 09:25:24;;;;;;;9.30;3.90;;;24.80;99.90;;;;;;5113635;28;20548;-48
2023/06/26 09:27:50;;;;;;;6.72;4.35;;;25.10;99.90;;;;;;5113678;28;20167;-48
2023/06/26 09:30:19;;;;;;;6.55;3.97;;;25.10;99.90;;;;;;5113474;28;20203;-48
2023/06/26 09:32:45;;;;;;;12.18;4.40;;;25.20;99.90;;;;;;5112443;28;20164;-48
2023/06/26 09:35:11;;;;;;;7.57;3.40;;;24.90;99.90;;;;;;5113990;28;20195;-48
2023/06/26 09:37:37;;;;;;;9.35;3.90;;;25.30;99.90;;;;;;5113376;28;20187;-48
2023/06/26 09:40:04;;;;;;;8.25;3.85;;;25.10;99.90;;;;;;5113536;28;20192;-48
2023/06/26 09:42:30;;;;;;;10.30;4.10;;;25.10;99.90;;;;;;5113394;28;20216;-48
2023/06/26 09:44:56;;;;;;;9.95;4.50;;;25.40;99.90;;;;;;5113329;28;20160;-49
2023/06/26 09:47:22;;;;;;;9.98;4.32;;;25.30;99.90;;;;;;5113238;28;20559;-48
2023/06/26 09:49:48;;;;;;;9.20;3.63;;;25.00;99.90;;;;;;5113136;28;20208;-48
2023/06/26 09:52:16;;;;;;;10.95;4.30;;;;;;;;;;5113475;28;20247;-49
2023/06/26 09:54:43;;;;;;;11.02;4.28;;;24.80;99.90;;;;;;5113720;28;20543;-49
2023/06/26 09:57:09;;;;;;;7.90;3.83;;;24.70;99.90;;;;;;5113628;28;20189;-49
2023/06/26 09:59:36;;;;;;;9.15;4.05;;;25.00;99.90;;;;;;5113055;28;20167;-48
2023/06/26 10:02:01;;;;;;;10.23;3.97;;;25.00;99.90;;;;;;5112914;28;20179;-48
2023/06/26 10:04:27;;;;;;;6.47;3.15;;;25.00;99.90;;;;;;5112937;28;20647;-48
2023/06/26 10:06:56;;;;;;;7.68;3.45;;;25.30;99.90;;;;;;5112957;28;20175;-49
2023/06/26 10:09:23;;;;;;;8.52;3.72;;;25.50;99.90;;;;;;5112722;28;20243;-48
2023/06/26 10:12:06;;;;;;;10.07;3.33;;;25.40;99.90;;;;;;5113035;28;20164;-48
2023/06/26 10:14:36;;;;;;;7.20;3.30;;;25.30;99.90;;;;;;5113000;28;20164;-48
2023/06/26 10:17:06;;;;;;;7.22;3.10;;;25.00;99.90;;;;;;5112886;28;20221;-48
2023/06/26 10:19:34;;;;;;;7.70;3.10;;;26.10;99.90;;;;;;5112509;28;20168;-48
2023/06/26 10:22:01;;;;;;;8.55;3.15;;;25.50;99.90;;;;;;5112271;28;20168;-49
2023/06/26 10:24:30;;;;;;;3.92;2.47;;;25.20;99.90;;;;;;5112521;28;20635;-48
2023/06/26 10:27:07;;;;;;;7.15;3.50;;;25.80;99.90;;;;;;5112438;28;20612;-49
2023/06/26 10:29:34;;;;;;;5.65;2.90;;;25.20;99.90;;;;;;5112289;28;20183;-49
2023/06/26 10:32:02;;;;;;;7.25;2.97;;;25.20;99.90;;;;;;5112400;28;20169;-47
2023/06/26 10:34:28;;;;;;;7.78;2.90;;;25.50;99.90;;;;;;5112322;28;20217;-47
2023/06/26 10:37:06;;;;;;;9.20;2.60;;;25.00;99.90;;;;;;5112471;28;20531;-47
2023/06/26 10:39:54;;;;;;;8.20;3.50;;;25.70;99.90;;;;;;5112252;28;20160;-48
2023/06/26 10:42:33;;;;;;;7.28;3.20;;;25.30;99.90;;;;;;5112231;28;20176;-47
2023/06/26 10:45:16;;;;;;;11.73;3.42;;;25.60;99.90;;;;;;5111672;28;20160;-47
2023/06/26 10:47:42;;;;;;;7.85;3.22;;;25.70;99.90;;;;;;5112829;28;20210;-47
2023/06/26 10:50:24;;;;;;;7.25;3.35;;;25.60;99.90;;;;;;5112351;28;20298;-47
2023/06/26 10:53:19;;;;;;;5.82;3.03;;;25.60;99.90;;;;;;5112024;28;20168;-47
2023/06/26 10:55:59;;;;;;;8.10;3.10;;;25.50;99.90;;;;;;5112220;28;20520;-47
2023/06/26 10:58:29;;;;;;;6.85;3.05;;;25.20;99.90;;;;;;5112113;28;20164;-47
2023/06/26 11:01:14;;;;;;;4.55;2.70;;;;;;;;;;5112289;28;20165;-47
2023/06/26 11:03:41;;;;;;;6.93;2.67;;;24.70;99.90;;;;;;5112368;28;20164;-47
2023/06/26 11:06:14;;;;;;;7.80;3.25;;;;;;;;;;5111877;28;20655;-47
2023/06/26 11:09:00;;;;;;;7.63;3.30;;;24.70;99.90;;;;;;5112209;28;20221;-47
2023/06/26 11:11:44;;;;;;;6.78;2.92;;;;;;;;;;5111873;28;20179;-47
2023/06/26 11:14:11;;;;;;;7.10;2.30;;;;;;;;;;5112353;28;20175;-47
2023/06/26 11:16:37;;;;;;;6.18;2.72;;;;;;;;;;5111851;28;20163;-47
2023/06/26 11:19:03;;;;;;;5.55;2.40;;;;;;;;;;5111747;28;20241;-48
2023/06/26 11:21:29;;;;;;;4.60;2.28;;;25.80;99.90;;;;;;5111148;28;20179;-48
2023/06/26 11:24:00;;;;;;;5.90;2.55;;;25.50;99.90;;;;;;5111577;28;20169;-48
2023/06/26 11:26:26;;;;;;;9.48;2.92;;;25.80;99.90;;;;;;5111833;28;20251;-48
2023/06/26 11:28:55;;;;;;;5.32;2.63;;;26.30;99.90;;;;;;5111433;28;20233;-48
2023/06/26 11:31:25;;;;;;;4.43;2.38;;;26.00;99.90;;;;;;5111527;28;20186;-48
2023/06/26 11:33:51;;;;;;;4.43;2.22;;;25.40;99.90;;;;;;5110958;28;20692;-48
2023/06/26 11:36:17;;;;;;;5.97;2.45;;;26.10;99.90;;;;;;5111582;28;20258;-48
2023/06/26 11:38:43;;;;;;;6.10;2.47;;;;;;;;;;5111510;28;20178;-48
2023/06/26 11:41:08;;;;;;;5.57;2.25;;;25.90;99.90;;;;;;5110969;28;20164;-47
2023/06/26 11:43:35;;;;;;;8.00;2.50;;;25.60;99.90;;;;;;5111190;28;20199;-48
2023/06/26 11:46:01;;;;;;;5.22;2.25;;;25.70;99.90;;;;;;5111473;28;20620;-49
2023/06/26 11:48:27;;;;;;;5.35;2.72;;;;;;;;;;5092855;28;20183;-47
2023/06/26 11:50:54;;;;;;;9.13;2.50;;;26.40;99.90;;;;;;5111259;28;20229;-47
2023/06/26 11:53:19;;;;;;;5.95;2.30;;;26.50;99.90;;;;;;5111282;28;20175;-49
2023/06/26 11:55:45;;;;;;;4.85;2.40;;;26.70;99.90;;;;;;5093926;28;20168;-50
2023/06/26 11:58:11;;;;;;;7.13;2.20;;;26.50;99.90;;;;;;5115576;28;20616;-49
2023/06/26 12:00:46;;;;;;;3.97;2.22;;;26.30;99.90;;;;;;5115157;28;20254;-48
2023/06/26 12:03:12;;;;;;;3.20;2.05;;;;;;;;;;5096792;28;20191;-48
2023/06/26 12:05:38;;;;;;;9.45;2.30;;;;;;;;;;5097254;28;20529;-49
2023/06/26 12:08:06;;;;;;;8.55;2.70;;;;;;;;;;5096748;28;20199;-49
2023/06/26 12:10:33;;;;;;;12.77;2.42;;;;;;;;;;5096359;28;20224;-48
2023/06/26 12:13:01;;;;;;;10.30;2.28;;;25.70;99.90;;;;;;5114678;28;20216;-48
2023/06/26 12:15:28;;;;;;;20.08;3.05;;;25.80;99.90;;;;;;5114968;28;20220;-48
2023/06/26 12:17:54;;;;;;;7.80;2.60;;;26.50;99.90;;;;;;5114427;28;20620;-48
2023/06/26 12:20:25;;;;;;;9.05;2.47;;;26.40;99.80;;;;;;5096173;28;20217;-48
2023/06/26 12:22:51;;;;;;;4.32;1.92;;;26.60;99.90;;;;;;5114953;28;20168;-48
2023/06/26 12:25:23;;;;;;;6.60;2.63;;;26.40;99.90;;;;;;5096486;28;20221;-48
2023/06/26 12:27:49;;;;;;;4.78;1.67;;;25.60;98.70;;;;;;5096169;28;20199;-48
2023/06/26 12:30:15;;;;;;;2.67;1.90;;;26.00;98.70;;;;;;5096163;28;20286;-48
2023/06/26 12:32:45;;;;;;;6.43;2.00;;;;;;;;;;5114465;28;20255;-48
2023/06/26 12:35:11;;;;;;;6.78;2.20;;;25.90;99.90;;;;;;5096596;28;20198;-48
2023/06/26 12:37:40;;;;;;;6.18;1.92;;;25.60;98.70;;;;;;5114538;28;20615;-49
2023/06/26 12:40:17;;;;;;;10.02;2.20;;;;;;;;;;5096075;28;20619;-48
2023/06/26 12:42:43;;;;;;;9.07;2.58;;;25.30;99.90;;;;;;5114729;28;20168;-49
2023/06/26 12:45:14;;;;;;;4.90;2.00;;;25.00;99.90;;;;;;5095829;28;20702;-49
2023/06/26 12:47:41;;;;;;;13.85;2.22;;;25.40;99.90;;;;;;5096419;28;20527;-49
2023/06/26 12:50:07;;;;;;;10.30;2.10;;;24.90;99.90;;;;;;5114367;28;20267;-48
2023/06/26 12:52:33;;;;;;;15.07;2.35;;;;;;;;;;5096262;28;20304;-49
2023/06/26 12:54:59;;;;;;;14.15;2.55;;;25.30;99.90;;;;;;5095909;28;20168;-48
2023/06/26 12:57:46;;;;;;;10.38;2.03;;;25.60;99.90;;;;;;5095615;28;20176;-48